メインページ
METAR-TAF:

METAR-TAF

空港 :

リヤド, サウジアラビア

緯度: 24-43N, 経度: 046-44E, 海抜: 635m

現時点の気象観測

当レポートは5時間16分前の13:00(UTC)に作成
の風 14kt
気温 22°C
湿度 31%
気圧 1016 hPa
視程10km以上
高度4000ftの雲は散在している
高度8000ftの千切れ雲あり

METAR: OERY 171300Z 19014KT 9999 SCT040 BKN080 22/04 Q1016

時間: 21:16 (18:16 UTC)

予報

当レポートは7時間16分前の11:00(UTC)に作成
予報は17日の 12時(UTC)から 18日の 18時(UTC)まで有効
南/南東の風 8kt、最大18ktの突風を伴う
視程: 8000m
高度4000ftの雲は散在している
高度10000ftの雲はほとんどない
17日の 12時(UTC)から 17日の 20時(UTC)まで一時的に
視程: 5000m
高度3500ftの雲はほとんどない, 積乱雲.
高度4000ftの千切れ雲あり
高度10000ftの雲は散在している
風塵, 激しい雷雨, 雨

TAF: OERY 171100Z 1712/1818 15008G18KT 8000 SCT040 FEW100 TEMPO 1712/1720 5000 BLDU TSRA FEW035CB BKN040 SCT100

4,000以上の空港の気象観測と天気予報(METAR報とTAF報)

利用可能な観測所は地図上に黄色い丸と赤い丸で示す。

丸の上にカーソルを重ねると観測所名を参照できる。

次にクリックすると気象観測と天気予報を参照できる。

マップの切り替え:黒色「×」印の緑ボタンをクリックして拡大、「-」印の緑ボタンをクリックして縮小、緑色の三角印をクリックして隣りの地図に切り替え


METAR-TAF: